createdAt,value
2022-10-26T00:00:25.541Z,8.57
2022-10-26T00:02:53.427Z,7.65
2022-10-26T00:05:20.373Z,8.85
2022-10-26T00:07:46.724Z,6.35
2022-10-26T00:10:13.196Z,5.85
2022-10-26T00:12:40.082Z,8.23
2022-10-26T00:15:08.207Z,9.32
2022-10-26T00:17:34.900Z,8.75
2022-10-26T00:20:02.577Z,9.68
2022-10-26T00:22:28.912Z,8.40
2022-10-26T00:24:55.252Z,8.15
2022-10-26T00:27:21.596Z,6.40
2022-10-26T00:29:48.949Z,8.23
2022-10-26T00:32:15.323Z,6.32
2022-10-26T00:34:41.674Z,7.80
2022-10-26T00:37:08.109Z,8.27
2022-10-26T00:39:34.432Z,8.63
2022-10-26T00:42:01.128Z,10.70
2022-10-26T00:44:48.565Z,8.45
2022-10-26T00:47:21.210Z,9.98
2022-10-26T00:49:52.559Z,10.70
2022-10-26T00:52:20.914Z,6.85
2022-10-26T00:54:47.314Z,10.40
2022-10-26T00:57:16.000Z,7.88
2022-10-26T00:59:44.040Z,8.65
2022-10-26T01:02:11.200Z,7.45
2022-10-26T01:04:37.548Z,9.10
2022-10-26T01:07:05.984Z,8.80
2022-10-26T01:09:33.136Z,7.22
2022-10-26T01:11:59.703Z,6.80
2022-10-26T01:14:28.172Z,7.68
2022-10-26T01:17:22.547Z,8.52
2022-10-26T01:20:10.256Z,7.10
2022-10-26T01:22:36.537Z,8.95
2022-10-26T01:25:08.992Z,8.32
2022-10-26T01:27:45.972Z,9.82
2022-10-26T01:30:25.200Z,7.47
2022-10-26T01:33:26.491Z,9.60
2022-10-26T01:36:11.569Z,7.40
2022-10-26T01:38:53.675Z,7.50
2022-10-26T01:41:31.950Z,9.52
2022-10-26T01:44:05.670Z,11.38
2022-10-26T01:46:37.609Z,13.10
2022-10-26T01:49:10.127Z,7.70
2022-10-26T01:51:39.173Z,7.72
2022-10-26T01:54:05.596Z,7.47
2022-10-26T01:56:39.360Z,9.73
2022-10-26T01:59:23.937Z,9.40
2022-10-26T02:01:52.862Z,10.02
2022-10-26T02:04:37.583Z,9.65
2022-10-26T02:07:18.300Z,11.68
2022-10-26T02:10:00.765Z,11.30
2022-10-26T02:12:35.934Z,9.88
2022-10-26T02:15:13.730Z,10.60
2022-10-26T02:18:00.169Z,11.52
2022-10-26T02:20:39.064Z,10.15
2022-10-26T02:23:07.899Z,11.23
2022-10-26T02:25:39.564Z,11.85
2022-10-26T02:28:10.689Z,8.93
2022-10-26T02:30:40.255Z,9.50
2022-10-26T02:33:10.496Z,13.88
2022-10-26T02:35:39.978Z,9.27
2022-10-26T02:38:10.918Z,13.43
2022-10-26T02:43:13.116Z,11.13
2022-10-26T02:45:46.361Z,12.40
2022-10-26T02:48:12.987Z,13.15
2022-10-26T02:50:58.440Z,13.93
2022-10-26T02:53:47.481Z,10.40
2022-10-26T02:56:20.873Z,12.07
2022-10-26T02:58:53.799Z,9.85
2022-10-26T03:01:20.579Z,10.93
2022-10-26T03:03:47.703Z,9.93
2022-10-26T03:06:22.290Z,13.32
2022-10-26T03:08:49.543Z,11.10
2022-10-26T03:11:16.564Z,9.70
2022-10-26T03:13:43.436Z,12.60
2022-10-26T03:16:10.056Z,11.02
2022-10-26T03:18:36.425Z,10.68
2022-10-26T03:21:02.860Z,14.07
2022-10-26T03:23:29.189Z,11.95
2022-10-26T03:25:58.962Z,13.73
2022-10-26T03:28:25.785Z,14.65
2022-10-26T03:30:52.386Z,16.27
2022-10-26T03:33:18.853Z,12.25
2022-10-26T03:35:45.511Z,12.77
2022-10-26T03:38:15.801Z,10.65
2022-10-26T03:40:42.517Z,15.15
2022-10-26T03:43:09.078Z,11.90
2022-10-26T03:45:35.565Z,12.95
2022-10-26T03:48:02.110Z,11.38
2022-10-26T03:50:28.591Z,13.00
2022-10-26T03:52:54.928Z,12.07
2022-10-26T03:55:21.258Z,10.77
2022-10-26T03:57:47.646Z,14.07
2022-10-26T04:00:16.402Z,11.90
2022-10-26T04:02:46.863Z,13.77
2022-10-26T04:05:14.227Z,11.25
2022-10-26T04:07:40.555Z,14.10
2022-10-26T04:10:07.396Z,10.40
2022-10-26T04:12:37.422Z,11.07
2022-10-26T04:15:04.354Z,14.77
2022-10-26T04:17:30.686Z,9.20
2022-10-26T04:19:57.253Z,13.05
2022-10-26T04:22:23.624Z,11.75
2022-10-26T04:24:50.234Z,11.98
2022-10-26T04:27:16.553Z,12.10
2022-10-26T04:29:43.081Z,11.07
2022-10-26T04:32:09.427Z,12.52
2022-10-26T04:34:35.825Z,11.15
2022-10-26T04:37:02.147Z,14.05
2022-10-26T04:39:28.583Z,12.02
2022-10-26T04:41:55.033Z,9.88
2022-10-26T04:44:21.398Z,11.68
2022-10-26T04:46:47.797Z,11.80
2022-10-26T04:49:14.677Z,9.90
2022-10-26T04:51:41.024Z,11.52
2022-10-26T04:54:07.635Z,11.38
2022-10-26T04:56:34.254Z,10.93
2022-10-26T04:59:00.726Z,13.45
2022-10-26T05:01:27.227Z,12.13
2022-10-26T05:03:53.995Z,12.98
2022-10-26T05:06:21.388Z,12.52
2022-10-26T05:08:48.031Z,12.18
2022-10-26T05:11:14.813Z,11.55
2022-10-26T05:13:41.614Z,12.15
2022-10-26T05:16:08.358Z,12.02
2022-10-26T05:18:34.814Z,11.00
2022-10-26T05:21:01.208Z,8.77
2022-10-26T05:23:27.757Z,11.30
2022-10-26T05:25:55.069Z,12.13
2022-10-26T05:28:21.649Z,14.70
2022-10-26T05:30:48.275Z,13.77
2022-10-26T05:33:15.443Z,9.60
2022-10-26T05:35:42.049Z,9.65
2022-10-26T05:38:12.919Z,12.73
2022-10-26T05:43:05.616Z,11.13
2022-10-26T05:45:31.941Z,17.35
2022-10-26T05:48:02.515Z,14.07
2022-10-26T05:50:29.549Z,14.05
2022-10-26T05:52:55.902Z,9.23
2022-10-26T05:55:22.997Z,12.43
2022-10-26T05:57:50.089Z,11.25
2022-10-26T06:00:20.189Z,13.27
2022-10-26T06:03:04.321Z,12.48
2022-10-26T06:05:35.079Z,12.57
2022-10-26T06:08:11.170Z,10.95
2022-10-26T06:10:38.910Z,11.43
2022-10-26T06:13:05.485Z,9.73
2022-10-26T06:15:35.520Z,13.35
2022-10-26T06:18:39.902Z,14.60
2022-10-26T06:21:41.732Z,11.90
2022-10-26T06:24:16.682Z,13.30
2022-10-26T06:27:33.645Z,11.45
2022-10-26T06:30:11.681Z,14.02
2022-10-26T06:32:45.351Z,11.13
2022-10-26T06:35:20.498Z,10.82
2022-10-26T06:37:47.414Z,11.75
2022-10-26T06:40:16.564Z,12.90
2022-10-26T06:42:43.490Z,10.77
2022-10-26T06:48:00.544Z,12.85
2022-10-26T06:50:32.882Z,11.20
2022-10-26T06:53:05.113Z,12.38
2022-10-26T06:55:40.518Z,12.38
2022-10-26T06:58:12.715Z,12.95
2022-10-26T07:00:39.903Z,9.20
2022-10-26T07:03:06.343Z,11.70
2022-10-26T07:05:33.484Z,11.95
2022-10-26T07:07:59.997Z,11.95
2022-10-26T07:10:26.537Z,10.65
2022-10-26T07:12:52.922Z,12.55
2022-10-26T07:15:19.286Z,11.00
2022-10-26T07:17:48.579Z,14.77
2022-10-26T07:20:21.414Z,12.07
2022-10-26T07:22:55.286Z,10.55
2022-10-26T07:25:22.729Z,10.20
2022-10-26T07:27:49.501Z,11.80
2022-10-26T07:30:16.208Z,10.68
2022-10-26T07:32:42.887Z,10.65
2022-10-26T07:35:09.500Z,10.25
2022-10-26T07:37:35.977Z,10.73
2022-10-26T07:40:05.752Z,11.75
2022-10-26T07:42:33.838Z,9.82
2022-10-26T07:45:00.196Z,10.07
2022-10-26T07:47:26.558Z,11.23
2022-10-26T07:49:54.017Z,12.82
2022-10-26T07:52:20.341Z,9.65
2022-10-26T07:54:46.686Z,10.57
2022-10-26T07:57:13.065Z,12.77
2022-10-26T07:59:41.890Z,11.30
2022-10-26T08:02:09.682Z,11.30
2022-10-26T08:04:36.083Z,10.18
2022-10-26T08:07:02.431Z,16.20
2022-10-26T08:09:31.110Z,8.95
2022-10-26T08:11:57.519Z,8.07
2022-10-26T08:14:24.058Z,10.80
2022-10-26T08:16:52.686Z,8.20
2022-10-26T08:19:20.500Z,11.80
2022-10-26T08:21:46.850Z,8.82
2022-10-26T08:24:13.629Z,8.90
2022-10-26T08:26:40.098Z,9.52
2022-10-26T08:29:08.873Z,9.00
2022-10-26T08:31:35.230Z,8.30
2022-10-26T08:34:01.873Z,9.68
2022-10-26T08:36:28.688Z,8.75
2022-10-26T08:38:56.241Z,8.82
2022-10-26T08:41:42.182Z,7.53
2022-10-26T08:44:26.948Z,10.63
2022-10-26T08:46:59.619Z,9.90
2022-10-26T08:49:36.031Z,10.23
2022-10-26T08:52:03.301Z,8.43
2022-10-26T08:54:55.543Z,9.45
2022-10-26T08:57:35.505Z,9.23
2022-10-26T09:00:06.865Z,10.07
2022-10-26T09:02:33.341Z,12.57
2022-10-26T09:05:00.247Z,9.23
2022-10-26T09:07:53.766Z,10.82
2022-10-26T09:10:39.111Z,8.80
2022-10-26T09:13:14.250Z,10.02
2022-10-26T09:15:56.800Z,9.45
2022-10-26T09:18:24.271Z,8.63
2022-10-26T09:20:58.051Z,9.23
2022-10-26T09:23:30.315Z,8.93
2022-10-26T09:26:02.155Z,9.32
2022-10-26T09:28:33.485Z,10.98
2022-10-26T09:31:01.588Z,10.13
2022-10-26T09:33:29.108Z,8.27
2022-10-26T09:36:00.273Z,7.85
2022-10-26T09:38:31.369Z,8.80
2022-10-26T09:41:28.270Z,8.73
2022-10-26T09:44:12.079Z,8.60
2022-10-26T09:47:05.214Z,10.00
2022-10-26T09:49:41.241Z,7.65
2022-10-26T09:52:07.766Z,7.85
2022-10-26T09:54:34.667Z,8.10
2022-10-26T09:57:02.155Z,7.22
2022-10-26T09:59:33.695Z,8.40
2022-10-26T10:02:00.498Z,8.48
2022-10-26T10:04:26.869Z,9.07
2022-10-26T10:07:15.204Z,7.60
2022-10-26T10:09:41.594Z,12.38
2022-10-26T10:12:20.556Z,7.28
2022-10-26T10:14:58.304Z,6.78
2022-10-26T10:17:25.642Z,10.13
2022-10-26T10:20:09.851Z,9.45
2022-10-26T10:22:36.196Z,7.38
2022-10-26T10:25:04.634Z,9.68
2022-10-26T10:27:33.310Z,8.65
2022-10-26T10:30:21.305Z,10.35
2022-10-26T10:33:04.562Z,8.90
2022-10-26T10:35:30.980Z,8.38
2022-10-26T10:38:04.438Z,8.85
2022-10-26T10:40:32.303Z,7.68
2022-10-26T10:43:06.708Z,6.82
2022-10-26T10:45:35.325Z,7.80
2022-10-26T10:48:05.503Z,6.18
2022-10-26T10:50:34.577Z,8.75
2022-10-26T10:53:14.561Z,8.70
2022-10-26T10:58:46.153Z,10.18
2022-10-26T11:01:21.716Z,7.07
2022-10-26T11:04:09.221Z,10.43
2022-10-26T11:06:38.818Z,9.70
2022-10-26T11:09:14.349Z,9.80
2022-10-26T11:11:50.314Z,8.13
2022-10-26T11:14:25.504Z,6.28
2022-10-26T11:17:01.265Z,7.00
2022-10-26T11:19:33.904Z,9.20
2022-10-26T11:22:04.746Z,10.45
2022-10-26T11:24:40.061Z,8.15
2022-10-26T11:27:46.325Z,8.98
2022-10-26T11:30:34.566Z,7.82
2022-10-26T11:33:04.364Z,9.18
2022-10-26T11:35:58.570Z,9.57
2022-10-26T11:38:46.025Z,8.85
2022-10-26T11:41:34.158Z,7.25
2022-10-26T11:44:10.218Z,6.88
2022-10-26T11:47:22.674Z,6.55
2022-10-26T11:50:17.105Z,6.35
2022-10-26T11:53:00.666Z,6.32
2022-10-26T11:55:28.702Z,8.13
2022-10-26T11:57:55.391Z,8.88
2022-10-26T12:00:23.068Z,6.25
2022-10-26T12:03:02.222Z,8.77
2022-10-26T12:05:31.549Z,6.95
2022-10-26T12:08:05.734Z,8.73
2022-10-26T12:10:37.201Z,9.20
2022-10-26T12:13:06.600Z,7.22
2022-10-26T12:16:04.793Z,7.95
2022-10-26T12:18:57.241Z,6.05
2022-10-26T12:21:31.795Z,6.28
2022-10-26T12:24:00.498Z,7.05
2022-10-26T12:26:26.770Z,7.05
2022-10-26T12:29:03.339Z,5.80
2022-10-26T12:31:33.270Z,6.97
2022-10-26T12:34:00.485Z,7.20
2022-10-26T12:36:48.631Z,6.53
2022-10-26T12:39:34.659Z,5.00
2022-10-26T12:42:10.474Z,7.70
2022-10-26T12:44:41.217Z,7.32
2022-10-26T12:47:30.916Z,8.27
2022-10-26T12:50:00.317Z,5.97
2022-10-26T12:52:40.924Z,7.55
2022-10-26T12:55:24.836Z,6.35
2022-10-26T12:58:21.606Z,6.38
2022-10-26T13:01:00.172Z,6.55
2022-10-26T13:03:40.251Z,7.57
2022-10-26T13:06:28.651Z,7.18
2022-10-26T13:08:59.030Z,5.47
2022-10-26T13:11:38.151Z,7.65
2022-10-26T13:14:08.740Z,7.82
2022-10-26T13:16:35.408Z,6.50
2022-10-26T13:19:24.075Z,7.70
2022-10-26T13:21:51.090Z,7.28
2022-10-26T13:24:20.439Z,8.30
2022-10-26T13:27:05.108Z,6.45
2022-10-26T13:29:33.074Z,8.38
2022-10-26T13:32:00.181Z,7.45
2022-10-26T13:34:30.861Z,7.35
2022-10-26T13:37:07.523Z,9.23
2022-10-26T13:42:07.449Z,8.82
2022-10-26T13:44:45.919Z,7.53
2022-10-26T13:47:21.852Z,6.38
2022-10-26T13:49:54.101Z,7.25
2022-10-26T13:52:40.610Z,7.10
2022-10-26T13:55:45.360Z,8.15
2022-10-26T13:58:30.838Z,7.35
2022-10-26T14:01:09.314Z,8.48
2022-10-26T14:03:36.660Z,9.63
2022-10-26T14:06:25.027Z,8.88
2022-10-26T14:08:56.231Z,10.77
2022-10-26T14:11:31.738Z,9.32
2022-10-26T14:13:58.280Z,7.97
2022-10-26T14:16:29.031Z,7.97
2022-10-26T14:18:55.880Z,9.23
2022-10-26T14:21:22.897Z,6.18
2022-10-26T14:23:52.520Z,6.22
2022-10-26T14:26:25.149Z,7.90
2022-10-26T14:28:55.748Z,10.73
2022-10-26T14:31:32.985Z,7.88
2022-10-26T14:34:04.349Z,6.82
2022-10-26T14:36:39.044Z,6.75
2022-10-26T14:39:09.342Z,6.53
2022-10-26T14:41:36.454Z,7.10
2022-10-26T14:44:03.289Z,6.15
2022-10-26T14:46:35.146Z,6.03
2022-10-26T14:49:03.240Z,6.82
2022-10-26T14:51:34.902Z,9.48
2022-10-26T14:54:03.883Z,4.47
2022-10-26T14:56:39.773Z,5.85
2022-10-26T14:59:10.949Z,8.30
2022-10-26T15:01:55.733Z,5.05
2022-10-26T15:04:37.765Z,8.35
2022-10-26T15:07:08.880Z,6.97
2022-10-26T15:09:39.871Z,3.28
2022-10-26T15:12:06.835Z,4.55
2022-10-26T15:14:34.278Z,7.55
2022-10-26T15:17:01.637Z,4.07
2022-10-26T15:19:28.787Z,5.03
2022-10-26T15:21:55.428Z,4.57
2022-10-26T15:24:36.017Z,7.70
2022-10-26T15:27:13.750Z,5.32
2022-10-26T15:29:43.788Z,6.30
2022-10-26T15:32:29.949Z,6.15
2022-10-26T15:35:20.116Z,7.35
2022-10-26T15:37:47.306Z,6.30
2022-10-26T15:40:14.074Z,8.98
2022-10-26T15:42:42.125Z,4.97
2022-10-26T15:45:22.513Z,6.07
2022-10-26T15:47:52.029Z,4.95
2022-10-26T15:50:22.069Z,6.13
2022-10-26T15:52:49.598Z,7.60
2022-10-26T15:55:17.659Z,5.63
2022-10-26T15:57:44.687Z,7.20
2022-10-26T16:00:16.901Z,7.28
2022-10-26T16:02:45.010Z,6.60
2022-10-26T16:05:13.342Z,5.90
2022-10-26T16:07:43.094Z,7.07
2022-10-26T16:10:20.328Z,4.13
2022-10-26T16:12:46.780Z,7.93
2022-10-26T16:15:18.833Z,5.60
2022-10-26T16:17:45.768Z,7.78
2022-10-26T16:20:18.734Z,29.40
2022-10-26T16:22:48.195Z,23.67
2022-10-26T16:25:20.974Z,9.07
2022-10-26T16:27:47.822Z,6.50
2022-10-26T16:30:14.794Z,9.63
2022-10-26T16:32:42.221Z,9.00
2022-10-26T16:35:09.944Z,11.73
2022-10-26T16:37:36.319Z,9.38
2022-10-26T16:40:05.660Z,11.70
2022-10-26T16:42:32.717Z,11.57
2022-10-26T16:45:02.615Z,9.52
2022-10-26T16:47:29.791Z,10.32
2022-10-26T16:49:56.273Z,7.35
2022-10-26T16:52:22.637Z,8.07
2022-10-26T16:54:49.029Z,10.32
2022-10-26T16:57:15.597Z,8.93
2022-10-26T16:59:42.144Z,11.48
2022-10-26T17:02:09.488Z,13.68
2022-10-26T17:04:36.022Z,8.68
2022-10-26T17:07:02.368Z,9.48
2022-10-26T17:09:29.785Z,9.85
2022-10-26T17:12:00.949Z,12.93
2022-10-26T17:14:28.444Z,9.55
2022-10-26T17:16:54.838Z,7.65
2022-10-26T17:19:22.165Z,7.82
2022-10-26T17:21:48.616Z,9.20
2022-10-26T17:24:15.082Z,13.38
2022-10-26T17:26:42.148Z,11.38
2022-10-26T17:31:41.514Z,9.80
2022-10-26T17:34:07.898Z,10.05
2022-10-26T17:36:34.378Z,9.38
2022-10-26T17:39:00.959Z,9.85
2022-10-26T17:41:28.614Z,8.50
2022-10-26T17:43:54.978Z,10.52
2022-10-26T17:46:24.269Z,8.88
2022-10-26T17:48:58.668Z,8.20
2022-10-26T17:51:26.544Z,8.48
2022-10-26T17:53:53.279Z,11.20
2022-10-26T17:56:28.529Z,7.13
2022-10-26T17:59:04.216Z,8.90
2022-10-26T18:01:31.792Z,12.63
2022-10-26T18:03:59.021Z,10.07
2022-10-26T18:06:25.553Z,10.23
2022-10-26T18:08:52.104Z,13.02
2022-10-26T18:11:26.502Z,12.48
2022-10-26T18:13:57.231Z,12.57
2022-10-26T18:16:25.410Z,10.63
2022-10-26T18:19:00.188Z,11.32
2022-10-26T18:21:28.240Z,12.23
2022-10-26T18:23:54.956Z,12.45
2022-10-26T18:26:26.760Z,12.35
2022-10-26T18:28:54.472Z,10.50
2022-10-26T18:31:23.103Z,10.85
2022-10-26T18:33:53.735Z,10.60
2022-10-26T18:36:20.494Z,15.48
2022-10-26T18:38:47.564Z,22.48
2022-10-26T18:41:17.761Z,25.20
2022-10-26T18:43:45.857Z,24.33
2022-10-26T18:46:36.465Z,21.75
2022-10-26T18:49:02.927Z,18.98
2022-10-26T18:51:31.867Z,15.95
2022-10-26T18:53:59.223Z,22.10
2022-10-26T18:56:26.090Z,31.67
2022-10-26T18:58:58.358Z,29.85
2022-10-26T19:01:31.743Z,19.27
2022-10-26T19:04:03.725Z,14.43
2022-10-26T19:06:32.598Z,11.02
2022-10-26T19:08:59.594Z,13.32
2022-10-26T19:11:27.623Z,12.35
2022-10-26T19:13:54.718Z,18.77
2022-10-26T19:19:10.603Z,23.55
2022-10-26T19:21:37.108Z,16.73
2022-10-26T19:24:04.005Z,22.33
2022-10-26T19:26:36.797Z,16.23
2022-10-26T19:29:06.933Z,16.73
2022-10-26T19:31:35.566Z,14.98
2022-10-26T19:34:03.296Z,12.82
2022-10-26T19:36:31.780Z,12.52
2022-10-26T19:38:58.435Z,11.07
2022-10-26T19:41:26.780Z,9.50
2022-10-26T19:43:54.581Z,12.13
2022-10-26T19:46:23.319Z,11.48
2022-10-26T19:48:57.905Z,11.52
2022-10-26T19:51:25.457Z,12.90
2022-10-26T19:53:52.013Z,9.18
2022-10-26T19:56:20.509Z,9.30
2022-10-26T19:58:47.673Z,9.60
2022-10-26T20:01:15.462Z,15.20
2022-10-26T20:03:42.042Z,10.35
2022-10-26T20:06:12.810Z,10.98
2022-10-26T20:11:10.146Z,10.85
2022-10-26T20:13:40.214Z,9.07
2022-10-26T20:16:07.977Z,10.23
2022-10-26T20:18:34.811Z,9.88
2022-10-26T20:21:01.233Z,11.43
2022-10-26T20:23:27.595Z,11.98
2022-10-26T20:25:55.541Z,10.02
2022-10-26T20:28:22.136Z,14.15
2022-10-26T20:30:48.673Z,11.25
2022-10-26T20:33:15.257Z,9.85
2022-10-26T20:35:42.342Z,11.20
2022-10-26T20:38:16.740Z,13.32
2022-10-26T20:40:43.381Z,14.00
2022-10-26T20:43:10.752Z,12.32
2022-10-26T20:45:37.378Z,10.98
2022-10-26T20:48:04.125Z,12.43
2022-10-26T20:50:30.968Z,18.33
2022-10-26T20:53:07.067Z,22.45
2022-10-26T20:55:36.249Z,24.20
2022-10-26T20:58:09.933Z,32.20
2022-10-26T21:00:42.625Z,28.13
2022-10-26T21:03:09.549Z,28.02
2022-10-26T21:05:35.933Z,26.25
2022-10-26T21:08:02.285Z,18.98
2022-10-26T21:10:29.074Z,17.08
2022-10-26T21:12:55.421Z,13.77
2022-10-26T21:15:21.815Z,13.77
2022-10-26T21:17:48.387Z,14.13
2022-10-26T21:20:15.101Z,12.73
2022-10-26T21:22:41.499Z,14.73
2022-10-26T21:25:08.254Z,12.20
2022-10-26T21:27:34.598Z,13.68
2022-10-26T21:30:01.186Z,11.02
2022-10-26T21:32:27.536Z,10.90
2022-10-26T21:34:53.898Z,12.13
2022-10-26T21:37:20.295Z,13.27
2022-10-26T21:39:47.954Z,11.88
2022-10-26T21:42:14.305Z,11.13
2022-10-26T21:44:41.759Z,13.90
2022-10-26T21:47:09.241Z,11.98
2022-10-26T21:49:37.233Z,13.77
2022-10-26T21:52:03.693Z,13.07
2022-10-26T21:54:30.140Z,13.38
2022-10-26T21:56:56.531Z,9.68
2022-10-26T21:59:23.097Z,9.88
2022-10-26T22:01:49.513Z,10.30
2022-10-26T22:04:16.081Z,11.48
2022-10-26T22:06:42.719Z,10.15
2022-10-26T22:09:09.119Z,11.43
2022-10-26T22:11:35.489Z,10.48
2022-10-26T22:14:01.913Z,9.38
2022-10-26T22:16:30.420Z,11.07
2022-10-26T22:19:04.452Z,18.67
2022-10-26T22:21:34.912Z,10.55
2022-10-26T22:24:01.581Z,10.10
2022-10-26T22:26:28.492Z,10.55
2022-10-26T22:28:56.719Z,9.80
2022-10-26T22:31:28.845Z,11.38
2022-10-26T22:33:57.530Z,9.18
2022-10-26T22:36:25.189Z,10.63
2022-10-26T22:38:53.512Z,10.07
2022-10-26T22:41:21.776Z,12.45
2022-10-26T22:43:50.601Z,11.95
2022-10-26T22:46:18.458Z,9.95
2022-10-26T22:48:47.119Z,10.75
2022-10-26T22:51:19.986Z,10.32
2022-10-26T22:53:50.601Z,9.85
2022-10-26T22:56:17.303Z,9.43
2022-10-26T22:58:43.786Z,8.38
2022-10-26T23:01:13.428Z,9.32
2022-10-26T23:03:40.988Z,13.48
2022-10-26T23:06:09.363Z,11.82
2022-10-26T23:08:36.116Z,12.60
2022-10-26T23:11:07.104Z,16.65
2022-10-26T23:13:33.479Z,12.07
2022-10-26T23:16:11.844Z,13.75
2022-10-26T23:18:38.818Z,11.65
2022-10-26T23:21:06.819Z,11.30
2022-10-26T23:23:33.532Z,10.07
2022-10-26T23:26:01.295Z,9.95
2022-10-26T23:28:30.868Z,9.15
2022-10-26T23:30:57.343Z,10.98
2022-10-26T23:33:23.681Z,11.68
2022-10-26T23:35:53.905Z,10.63
2022-10-26T23:38:20.473Z,13.65
2022-10-26T23:41:07.096Z,12.93
2022-10-26T23:43:35.910Z,12.95
2022-10-26T23:46:02.948Z,10.80
2022-10-26T23:48:29.751Z,12.98
2022-10-26T23:50:56.141Z,12.00
2022-10-26T23:53:25.100Z,13.27
2022-10-26T23:55:51.883Z,14.00
2022-10-26T23:58:19.194Z,12.65
